ARG2340 SAZR-SAEZ
Flight info
| Callsign | ARG2340 |
|---|---|
| Flight time | N/A |
| Altitude | 37000 |
| Route | OGLER2G OGLER DCT MILAX UT655 ASADA ASADA7U |
| Aircraft | B738/M-SDE2E3FGHIRWXY/LB1 |
Departure
| Time | 2026-04-17 23:27 |
|---|---|
| Airport | Santa Rosa Airport (SAZR) |
Arrival
| Time | N/A |
|---|---|
| Airport | Ezeiza International Airport - Ministro Pistarini (SAEZ) |
| Time | Latitude | Longitude | Altitude | Speed | Heading |
|---|---|---|---|---|---|
| 2026-04-17 23:06 | -36.59201 | -64.27871 | 635 ft | 0 kts | 273° |
| 2026-04-17 23:16 | -36.59197 | -64.27885 | 632 ft | 4 kts | 294° |
| 2026-04-17 23:16 | -36.59180 | -64.27909 | 629 ft | 4 kts | 319° |
| 2026-04-17 23:17 | -36.59167 | -64.27916 | 625 ft | 4 kts | 21° |
| 2026-04-17 23:17 | -36.59168 | -64.27894 | 627 ft | 4 kts | 102° |
| 2026-04-17 23:17 | -36.59172 | -64.27883 | 625 ft | 1 kts | 111° |
| 2026-04-17 23:17 | -36.59170 | -64.27887 | 625 ft | 0 kts | 111° |
| 2026-04-17 23:20 | -36.59171 | -64.27886 | 625 ft | 0 kts | 111° |
| 2026-04-17 23:21 | -36.59173 | -64.27878 | 628 ft | 2 kts | 111° |
| 2026-04-17 23:21 | -36.59174 | -64.27875 | 629 ft | 2 kts | 111° |
| 2026-04-17 23:21 | -36.59180 | -64.27839 | 627 ft | 2 kts | 89° |
| 2026-04-17 23:21 | -36.59178 | -64.27823 | 624 ft | 2 kts | 81° |
| 2026-04-17 23:22 | -36.59175 | -64.27809 | 624 ft | 0 kts | 74° |
| 2026-04-17 23:22 | -36.59175 | -64.27808 | 624 ft | 1 kts | 73° |
| 2026-04-17 23:22 | -36.59164 | -64.27772 | 631 ft | 8 kts | 67° |
| 2026-04-17 23:23 | -36.59135 | -64.27691 | 627 ft | 14 kts | 65° |
| 2026-04-17 23:23 | -36.59033 | -64.27612 | 628 ft | 22 kts | 12° |
| 2026-04-17 23:23 | -36.58872 | -64.27572 | 626 ft | 26 kts | 12° |
| 2026-04-17 23:23 | -36.58683 | -64.27526 | 631 ft | 28 kts | 11° |
| 2026-04-17 23:24 | -36.58496 | -64.27480 | 633 ft | 27 kts | 11° |
| 2026-04-17 23:24 | -36.58320 | -64.27438 | 637 ft | 25 kts | 11° |
| 2026-04-17 23:24 | -36.58156 | -64.27397 | 637 ft | 23 kts | 11° |
| 2026-04-17 23:24 | -36.58001 | -64.27360 | 637 ft | 22 kts | 11° |
| 2026-04-17 23:25 | -36.57861 | -64.27350 | 637 ft | 18 kts | 346° |
| 2026-04-17 23:25 | -36.57827 | -64.27330 | 632 ft | 2 kts | 131° |
| 2026-04-17 23:25 | -36.57858 | -64.27325 | 638 ft | 8 kts | 186° |
| 2026-04-17 23:25 | -36.57873 | -64.27328 | 634 ft | 0 kts | 192° |
| 2026-04-17 23:26 | -36.57878 | -64.27330 | 634 ft | 7 kts | 191° |
| 2026-04-17 23:26 | -36.58182 | -64.27404 | 634 ft | 83 kts | 191° |
| 2026-04-17 23:27 | -36.58989 | -64.27604 | 625 ft | 151 kts | 190° |
| 2026-04-17 23:27 | -36.60136 | -64.27880 | 1031 ft | 174 kts | 191° |
| 2026-04-17 23:27 | -36.61343 | -64.28113 | 1825 ft | 183 kts | 185° |
| 2026-04-17 23:27 | -36.62665 | -64.28246 | 2454 ft | 202 kts | 181° |
| 2026-04-17 23:28 | -36.64184 | -64.28235 | 2718 ft | 233 kts | 174° |
| 2026-04-17 23:28 | -36.65871 | -64.27931 | 3020 ft | 260 kts | 166° |
| 2026-04-17 23:28 | -36.67646 | -64.27220 | 2998 ft | 268 kts | 154° |
| 2026-04-17 23:28 | -36.69281 | -64.26087 | 3273 ft | 272 kts | 143° |
| 2026-04-17 23:29 | -36.70743 | -64.24595 | 4222 ft | 272 kts | 135° |
| 2026-04-17 23:29 | -36.72076 | -64.22918 | 5255 ft | 273 kts | 133° |
| 2026-04-17 23:29 | -36.73394 | -64.21196 | 6200 ft | 276 kts | 133° |
| 2026-04-17 23:29 | -36.74730 | -64.19447 | 7057 ft | 281 kts | 134° |
| 2026-04-17 23:30 | -36.76097 | -64.17669 | 7879 ft | 288 kts | 135° |
| 2026-04-17 23:30 | -36.77501 | -64.15855 | 8707 ft | 293 kts | 136° |
| 2026-04-17 23:30 | -36.78937 | -64.14007 | 9474 ft | 299 kts | 136° |
| 2026-04-17 23:30 | -36.80396 | -64.12130 | 9852 ft | 303 kts | 136° |
| 2026-04-17 23:31 | -36.81871 | -64.10239 | 9914 ft | 304 kts | 136° |
| 2026-04-17 23:31 | -36.83344 | -64.08352 | 9925 ft | 304 kts | 136° |
| 2026-04-17 23:31 | -36.84820 | -64.06463 | 9939 ft | 304 kts | 136° |
| 2026-04-17 23:31 | -36.86300 | -64.04569 | 9934 ft | 305 kts | 136° |
| 2026-04-17 23:32 | -36.87782 | -64.02672 | 9932 ft | 305 kts | 136° |
| 2026-04-17 23:32 | -36.89269 | -64.00768 | 9926 ft | 306 kts | 136° |
| 2026-04-17 23:32 | -36.90754 | -63.98866 | 9926 ft | 306 kts | 136° |
| 2026-04-17 23:32 | -36.92238 | -63.96962 | 9923 ft | 306 kts | 136° |
| 2026-04-17 23:33 | -36.93722 | -63.95055 | 9943 ft | 308 kts | 136° |
| 2026-04-17 23:33 | -36.95121 | -63.92985 | 10100 ft | 330 kts | 119° |
| 2026-04-17 23:33 | -36.95687 | -63.90173 | 10715 ft | 342 kts | 88° |
| 2026-04-17 23:33 | -36.95224 | -63.87256 | 11520 ft | 344 kts | 68° |
| 2026-04-17 23:34 | -36.94245 | -63.84519 | 12356 ft | 347 kts | 62° |
| 2026-04-17 23:34 | -36.93138 | -63.81816 | 13154 ft | 351 kts | 60° |
| 2026-04-17 23:34 | -36.91988 | -63.79102 | 13941 ft | 356 kts | 60° |
| 2026-04-17 23:34 | -36.90823 | -63.76354 | 14641 ft | 361 kts | 60° |
| 2026-04-17 23:35 | -36.89651 | -63.73557 | 15306 ft | 366 kts | 60° |
| 2026-04-17 23:35 | -36.88473 | -63.70716 | 16015 ft | 371 kts | 60° |
| 2026-04-17 23:35 | -36.87288 | -63.67828 | 16694 ft | 376 kts | 60° |
| 2026-04-17 23:35 | -36.86090 | -63.64892 | 17340 ft | 382 kts | 60° |
| 2026-04-17 23:36 | -36.84876 | -63.61909 | 17998 ft | 388 kts | 60° |
| 2026-04-17 23:36 | -36.83645 | -63.58881 | 18580 ft | 394 kts | 60° |
| 2026-04-17 23:36 | -36.82397 | -63.55812 | 19136 ft | 399 kts | 60° |
| 2026-04-17 23:36 | -36.81561 | -63.53757 | 19497 ft | 403 kts | 61° |
| 2026-04-17 23:37 | -36.80282 | -63.50613 | 20054 ft | 409 kts | 61° |
| 2026-04-17 23:37 | -36.78985 | -63.47431 | 20592 ft | 414 kts | 61° |
| 2026-04-17 23:37 | -36.77673 | -63.44212 | 21125 ft | 419 kts | 61° |
| 2026-04-17 23:37 | -36.76341 | -63.40950 | 21652 ft | 425 kts | 61° |
| 2026-04-17 23:38 | -36.74991 | -63.37645 | 22166 ft | 430 kts | 62° |
| 2026-04-17 23:38 | -36.73624 | -63.34302 | 22669 ft | 436 kts | 62° |
| 2026-04-17 23:38 | -36.72238 | -63.30918 | 23189 ft | 441 kts | 62° |
| 2026-04-17 23:38 | -36.70833 | -63.27490 | 23652 ft | 446 kts | 62° |
| 2026-04-17 23:39 | -36.69396 | -63.23989 | 24087 ft | 450 kts | 62° |
| 2026-04-17 23:39 | -36.67963 | -63.20500 | 24540 ft | 454 kts | 62° |
| 2026-04-17 23:39 | -36.66519 | -63.16991 | 24982 ft | 457 kts | 62° |
| 2026-04-17 23:39 | -36.65061 | -63.13449 | 25411 ft | 461 kts | 62° |
| 2026-04-17 23:40 | -36.63612 | -63.09933 | 25835 ft | 464 kts | 62° |
| 2026-04-17 23:40 | -36.62132 | -63.06348 | 26268 ft | 468 kts | 62° |
| 2026-04-17 23:40 | -36.60636 | -63.02726 | 26673 ft | 471 kts | 62° |
| 2026-04-17 23:40 | -36.59132 | -62.99088 | 27043 ft | 475 kts | 62° |
| 2026-04-17 23:41 | -36.57612 | -62.95417 | 27419 ft | 479 kts | 62° |
| 2026-04-17 23:41 | -36.56077 | -62.91715 | 27800 ft | 483 kts | 62° |
| 2026-04-17 23:41 | -36.54530 | -62.87988 | 28189 ft | 486 kts | 62° |
| 2026-04-17 23:41 | -36.52971 | -62.84236 | 28566 ft | 490 kts | 62° |
| 2026-04-17 23:42 | -36.51401 | -62.80459 | 28947 ft | 493 kts | 62° |
| 2026-04-17 23:42 | -36.49823 | -62.76672 | 29372 ft | 495 kts | 62° |
| 2026-04-17 23:42 | -36.48235 | -62.72863 | 29731 ft | 498 kts | 62° |
| 2026-04-17 23:42 | -36.46635 | -62.69031 | 30040 ft | 502 kts | 62° |
| 2026-04-17 23:43 | -36.45022 | -62.65171 | 30303 ft | 505 kts | 62° |
| 2026-04-17 23:43 | -36.43394 | -62.61281 | 30552 ft | 509 kts | 62° |
| 2026-04-17 23:43 | -36.41757 | -62.57372 | 30804 ft | 513 kts | 62° |
| 2026-04-17 23:43 | -36.40118 | -62.53463 | 31057 ft | 516 kts | 63° |
| 2026-04-17 23:44 | -36.38455 | -62.49505 | 31342 ft | 518 kts | 63° |
| 2026-04-17 23:44 | -36.36786 | -62.45536 | 31605 ft | 520 kts | 63° |
| 2026-04-17 23:44 | -36.35106 | -62.41544 | 31840 ft | 524 kts | 63° |
| 2026-04-17 23:44 | -36.33417 | -62.37535 | 32118 ft | 525 kts | 63° |
| 2026-04-17 23:45 | -36.30026 | -62.29507 | 32792 ft | 526 kts | 63° |
| 2026-04-17 23:45 | -36.28323 | -62.25482 | 33079 ft | 528 kts | 63° |
| 2026-04-17 23:45 | -36.26615 | -62.21449 | 33374 ft | 528 kts | 63° |
| 2026-04-17 23:46 | -36.24920 | -62.17452 | 34003 ft | 521 kts | 63° |
| 2026-04-17 23:46 | -36.23233 | -62.13481 | 34337 ft | 520 kts | 63° |
| 2026-04-17 23:46 | -36.21546 | -62.09513 | 34552 ft | 522 kts | 63° |
| 2026-04-17 23:46 | -36.19853 | -62.05533 | 34790 ft | 523 kts | 63° |
| 2026-04-17 23:47 | -36.18158 | -62.01556 | 35144 ft | 521 kts | 63° |
| 2026-04-17 23:47 | -36.16473 | -61.97608 | 35536 ft | 517 kts | 63° |
| 2026-04-17 23:47 | -36.14798 | -61.93685 | 35912 ft | 514 kts | 63° |
| 2026-04-17 23:47 | -36.13126 | -61.89776 | 36277 ft | 512 kts | 62° |
| 2026-04-17 23:48 | -36.11469 | -61.85907 | 36685 ft | 508 kts | 62° |
| 2026-04-17 23:48 | -36.09817 | -61.82052 | 36929 ft | 508 kts | 62° |
| 2026-04-17 23:48 | -36.08153 | -61.78173 | 36904 ft | 513 kts | 62° |
| 2026-04-17 23:49 | -36.04777 | -61.70320 | 36898 ft | 522 kts | 62° |
| 2026-04-17 23:49 | -36.01367 | -61.62406 | 36894 ft | 516 kts | 62° |
| 2026-04-17 23:50 | -35.98007 | -61.54642 | 36917 ft | 514 kts | 62° |
| 2026-04-17 23:50 | -35.94606 | -61.46798 | 36926 ft | 523 kts | 62° |
| 2026-04-17 23:51 | -35.91153 | -61.38818 | 36922 ft | 532 kts | 62° |
| 2026-04-17 23:51 | -35.87623 | -61.30731 | 36927 ft | 538 kts | 60° |
| 2026-04-17 23:52 | -35.83791 | -61.22813 | 36910 ft | 537 kts | 58° |
| 2026-04-17 23:52 | -35.79854 | -61.15038 | 36883 ft | 526 kts | 58° |
| 2026-04-17 23:52 | -35.77950 | -61.11266 | 36885 ft | 513 kts | 58° |
| 2026-04-17 23:53 | -35.76075 | -61.07527 | 36915 ft | 515 kts | 58° |
| 2026-04-17 23:53 | -35.72320 | -60.99996 | 36925 ft | 524 kts | 58° |
| 2026-04-17 23:54 | -35.68481 | -60.92281 | 36919 ft | 532 kts | 58° |
| 2026-04-17 23:54 | -35.64586 | -60.84470 | 36919 ft | 538 kts | 58° |
| 2026-04-17 23:55 | -35.60649 | -60.76601 | 36914 ft | 542 kts | 58° |
| 2026-04-17 23:55 | -35.56375 | -60.68081 | 36902 ft | 539 kts | 58° |
| 2026-04-17 23:56 | -35.52435 | -60.60247 | 36913 ft | 541 kts | 58° |
| 2026-04-17 23:56 | -35.48466 | -60.52369 | 36916 ft | 544 kts | 58° |